createdAt,value
2023-02-22T00:00:54.284Z,9.36
2023-02-22T00:02:11.254Z,9.36
2023-02-22T00:03:21.033Z,9.27
2023-02-22T00:04:22.828Z,9.28
2023-02-22T00:05:25.030Z,9.27
2023-02-22T00:06:26.776Z,9.26
2023-02-22T00:07:28.391Z,9.27
2023-02-22T00:08:33.344Z,9.28
2023-02-22T00:09:35.020Z,9.26
2023-02-22T00:10:38.450Z,9.22
2023-02-22T00:11:46.692Z,9.19
2023-02-22T00:12:51.002Z,9.23
2023-02-22T00:13:52.600Z,9.20
2023-02-22T00:14:54.217Z,9.19
2023-02-22T00:15:57.009Z,9.16
2023-02-22T00:16:59.923Z,9.09
2023-02-22T00:18:01.981Z,9.12
2023-02-22T00:19:06.017Z,9.10
2023-02-22T00:20:08.755Z,9.12
2023-02-22T00:21:10.718Z,9.10
2023-02-22T00:22:12.485Z,9.10
2023-02-22T00:23:16.255Z,9.14
2023-02-22T00:24:23.412Z,9.16
2023-02-22T00:25:25.242Z,9.19
2023-02-22T00:26:26.985Z,9.20
2023-02-22T00:27:28.618Z,9.24
2023-02-22T00:28:30.815Z,9.24
2023-02-22T00:29:34.434Z,9.27
2023-02-22T00:30:36.113Z,9.27
2023-02-22T00:31:39.348Z,9.30
2023-02-22T00:32:41.086Z,9.31
2023-02-22T00:33:42.777Z,9.31
2023-02-22T00:34:44.380Z,9.36
2023-02-22T00:35:46.118Z,9.37
2023-02-22T00:36:48.496Z,9.37
2023-02-22T00:37:50.907Z,9.47
2023-02-22T00:38:52.595Z,9.46
2023-02-22T00:39:54.264Z,9.36
2023-02-22T00:40:55.945Z,9.19
2023-02-22T00:41:57.593Z,9.00
2023-02-22T00:43:00.088Z,8.86
2023-02-22T00:44:01.766Z,8.79
2023-02-22T00:45:04.531Z,8.65
2023-02-22T00:46:06.242Z,8.56
2023-02-22T00:47:08.694Z,8.46
2023-02-22T00:48:10.559Z,8.38
2023-02-22T00:49:12.196Z,8.35
2023-02-22T00:50:13.946Z,8.30
2023-02-22T00:51:15.800Z,8.27
2023-02-22T00:52:17.557Z,8.25
2023-02-22T00:53:19.333Z,8.18
2023-02-22T00:54:21.039Z,8.14
2023-02-22T00:55:27.824Z,8.12
2023-02-22T00:56:29.538Z,8.04
2023-02-22T00:57:31.157Z,8.01
2023-02-22T00:58:32.823Z,7.97
2023-02-22T00:59:34.404Z,7.95
2023-02-22T01:00:38.162Z,7.94
2023-02-22T01:01:39.934Z,7.98
2023-02-22T01:02:42.478Z,7.97
2023-02-22T01:03:44.286Z,7.98
2023-02-22T01:04:46.003Z,8.01
2023-02-22T01:05:47.750Z,8.04
2023-02-22T01:06:49.490Z,8.04
2023-02-22T01:07:51.153Z,8.04
2023-02-22T01:08:52.903Z,8.01
2023-02-22T01:09:54.504Z,8.05
2023-02-22T01:10:56.522Z,8.11
2023-02-22T01:11:58.264Z,8.07
2023-02-22T01:13:00.350Z,8.10
2023-02-22T01:14:02.011Z,8.12
2023-02-22T01:15:04.620Z,8.10
2023-02-22T01:16:08.373Z,8.11
2023-02-22T01:17:10.238Z,8.14
2023-02-22T01:18:12.947Z,8.14
2023-02-22T01:19:14.664Z,8.10
2023-02-22T01:20:16.975Z,8.04
2023-02-22T01:21:18.841Z,7.87
2023-02-22T01:22:21.477Z,7.83
2023-02-22T01:23:23.106Z,7.83
2023-02-22T01:24:24.721Z,7.86
2023-02-22T01:25:30.358Z,7.89
2023-02-22T01:26:31.968Z,7.79
2023-02-22T01:27:35.014Z,7.67
2023-02-22T01:28:37.414Z,7.71
2023-02-22T01:29:39.623Z,7.71
2023-02-22T01:30:41.433Z,7.71
2023-02-22T01:31:46.167Z,7.70
2023-02-22T01:32:47.806Z,7.59
2023-02-22T01:33:50.943Z,7.62
2023-02-22T01:34:55.692Z,7.66
2023-02-22T01:35:57.487Z,7.67
2023-02-22T01:36:59.980Z,7.70
2023-02-22T01:38:01.740Z,7.71
2023-02-22T01:39:03.591Z,7.71
2023-02-22T01:40:07.337Z,7.65
2023-02-22T01:41:09.093Z,7.69
2023-02-22T01:42:10.709Z,7.74
2023-02-22T01:43:29.742Z,7.77
2023-02-22T01:44:35.958Z,7.77
2023-02-22T01:46:03.781Z,7.76
2023-02-22T01:47:11.398Z,7.81
2023-02-22T01:48:36.181Z,7.70
2023-02-22T01:49:48.717Z,7.74
2023-02-22T01:50:54.087Z,7.73
2023-02-22T01:51:56.778Z,7.74
2023-02-22T01:52:58.376Z,7.76
2023-02-22T01:54:10.614Z,7.73
2023-02-22T01:55:12.215Z,7.69
2023-02-22T01:56:13.883Z,7.74
2023-02-22T01:57:26.315Z,7.60
2023-02-22T01:58:28.373Z,7.69
2023-02-22T01:59:33.157Z,7.74
2023-02-22T02:00:35.225Z,7.81
2023-02-22T02:01:38.026Z,7.87
2023-02-22T02:02:41.873Z,7.93
2023-02-22T02:03:43.501Z,7.93
2023-02-22T02:04:45.366Z,7.98
2023-02-22T02:05:47.081Z,8.07
2023-02-22T02:06:48.809Z,8.08
2023-02-22T02:07:50.500Z,8.04
2023-02-22T02:09:17.073Z,8.11
2023-02-22T02:10:18.845Z,8.11
2023-02-22T02:11:24.735Z,8.04
2023-02-22T02:12:27.343Z,8.02
2023-02-22T02:13:28.947Z,8.00
2023-02-22T02:14:33.837Z,7.94
2023-02-22T02:15:35.598Z,8.05
2023-02-22T02:16:48.202Z,8.07
2023-02-22T02:17:50.492Z,8.12
2023-02-22T02:18:52.397Z,8.20
2023-02-22T02:19:56.959Z,8.20
2023-02-22T02:21:13.806Z,8.18
2023-02-22T02:22:25.514Z,8.21
2023-02-22T02:23:29.953Z,8.20
2023-02-22T02:24:52.490Z,8.18
2023-02-22T02:26:15.335Z,8.22
2023-02-22T02:27:17.618Z,8.27
2023-02-22T02:28:56.656Z,8.31
2023-02-22T02:30:11.683Z,8.34
2023-02-22T02:31:33.596Z,8.37
2023-02-22T02:32:44.317Z,8.27
2023-02-22T02:33:48.632Z,8.08
2023-02-22T02:35:18.341Z,7.79
2023-02-22T02:36:24.352Z,7.65
2023-02-22T02:37:35.156Z,7.53
2023-02-22T02:38:41.688Z,7.50
2023-02-22T02:40:17.899Z,7.53
2023-02-22T02:41:28.272Z,7.56
2023-02-22T02:42:34.586Z,7.58
2023-02-22T02:43:47.330Z,7.56
2023-02-22T02:44:54.552Z,7.59
2023-02-22T02:46:43.430Z,7.62
2023-02-22T02:47:51.567Z,7.59
2023-02-22T02:48:58.984Z,7.55
2023-02-22T02:50:08.991Z,7.60
2023-02-22T02:51:10.844Z,7.69
2023-02-22T02:52:13.266Z,7.66
2023-02-22T02:53:18.171Z,7.58
2023-02-22T02:54:20.010Z,7.58
2023-02-22T02:55:21.711Z,7.65
2023-02-22T02:56:26.112Z,7.69
2023-02-22T02:57:27.954Z,7.71
2023-02-22T02:58:29.774Z,7.76
2023-02-22T02:59:37.453Z,7.76
2023-02-22T03:00:39.941Z,7.74
2023-02-22T03:01:47.640Z,7.71
2023-02-22T03:02:49.242Z,7.74
2023-02-22T03:04:20.403Z,7.65
2023-02-22T03:05:48.063Z,7.70
2023-02-22T03:06:49.626Z,7.65
2023-02-22T03:08:04.823Z,7.70
2023-02-22T03:09:28.089Z,7.74
2023-02-22T03:10:50.998Z,7.73
2023-02-22T03:12:03.811Z,7.74
2023-02-22T03:13:29.954Z,7.79
2023-02-22T03:14:42.609Z,7.67
2023-02-22T03:15:46.234Z,7.74
2023-02-22T03:17:05.291Z,7.76
2023-02-22T03:18:17.850Z,7.83
2023-02-22T03:19:24.868Z,7.84
2023-02-22T03:20:45.452Z,7.89
2023-02-22T03:21:55.267Z,7.89
2023-02-22T03:23:03.916Z,7.94
2023-02-22T03:24:18.896Z,7.98
2023-02-22T03:25:28.350Z,8.02
2023-02-22T03:26:36.408Z,8.02
2023-02-22T03:28:02.997Z,8.05
2023-02-22T03:29:05.284Z,7.98
2023-02-22T03:30:09.186Z,8.02
2023-02-22T03:31:33.236Z,8.05
2023-02-22T03:32:38.038Z,8.05
2023-02-22T03:33:44.984Z,7.98
2023-02-22T03:34:52.751Z,7.97
2023-02-22T03:36:00.162Z,7.87
2023-02-22T03:37:07.805Z,7.77
2023-02-22T03:38:11.095Z,7.65
2023-02-22T03:39:16.121Z,7.53
2023-02-22T03:40:26.678Z,7.49
2023-02-22T03:41:28.280Z,7.43
2023-02-22T03:42:31.525Z,7.39
2023-02-22T03:43:36.949Z,7.39
2023-02-22T03:44:40.308Z,7.36
2023-02-22T03:45:43.569Z,7.38
2023-02-22T03:46:46.837Z,7.35
2023-02-22T03:47:52.667Z,7.36
2023-02-22T03:49:13.654Z,7.38
2023-02-22T03:50:17.501Z,7.45
2023-02-22T03:51:19.436Z,7.45
2023-02-22T03:52:23.504Z,7.49
2023-02-22T03:53:25.201Z,7.48
2023-02-22T03:54:27.506Z,7.52
2023-02-22T03:55:29.148Z,7.55
2023-02-22T03:56:36.029Z,7.58
2023-02-22T03:57:39.554Z,7.58
2023-02-22T03:58:43.998Z,7.56
2023-02-22T03:59:45.897Z,7.48
2023-02-22T04:00:47.707Z,7.50
2023-02-22T04:01:51.169Z,7.50
2023-02-22T04:02:52.815Z,7.48
2023-02-22T04:03:54.429Z,7.42
2023-02-22T04:04:56.080Z,7.32
2023-02-22T04:05:58.034Z,7.29
2023-02-22T04:07:00.122Z,7.26
2023-02-22T04:08:01.725Z,7.20
2023-02-22T04:09:03.367Z,7.20
2023-02-22T04:10:08.553Z,7.22
2023-02-22T04:11:10.132Z,7.19
2023-02-22T04:12:11.788Z,7.12
2023-02-22T04:13:14.738Z,7.12
2023-02-22T04:14:16.494Z,7.04
2023-02-22T04:15:22.928Z,7.07
2023-02-22T04:16:25.512Z,7.01
2023-02-22T04:17:27.113Z,7.01
2023-02-22T04:18:29.290Z,6.99
2023-02-22T04:19:30.912Z,7.05
2023-02-22T04:20:34.865Z,7.01
2023-02-22T04:21:36.765Z,6.89
2023-02-22T04:22:38.466Z,6.94
2023-02-22T04:23:40.110Z,6.97
2023-02-22T04:24:41.773Z,6.97
2023-02-22T04:25:43.461Z,6.89
2023-02-22T04:26:45.151Z,6.88
2023-02-22T04:27:46.842Z,6.89
2023-02-22T04:28:48.431Z,6.89
2023-02-22T04:29:50.039Z,6.78
2023-02-22T04:30:51.690Z,6.73
2023-02-22T04:31:53.742Z,6.61
2023-02-22T04:32:55.722Z,6.53
2023-02-22T04:33:57.450Z,6.50
2023-02-22T04:34:59.039Z,6.44
2023-02-22T04:36:01.180Z,6.43
2023-02-22T04:37:03.712Z,6.43
2023-02-22T04:38:05.454Z,6.48
2023-02-22T04:39:07.067Z,6.54
2023-02-22T04:40:09.222Z,6.53
2023-02-22T04:41:11.447Z,6.63
2023-02-22T04:42:13.152Z,6.60
2023-02-22T04:43:14.819Z,6.64
2023-02-22T04:44:16.435Z,6.65
2023-02-22T04:45:18.168Z,6.65
2023-02-22T04:46:19.988Z,6.67
2023-02-22T04:47:22.009Z,6.74
2023-02-22T04:48:23.743Z,6.74
2023-02-22T04:49:25.349Z,6.68
2023-02-22T04:50:28.478Z,6.70
2023-02-22T04:51:30.119Z,6.67
2023-02-22T04:52:31.722Z,6.63
2023-02-22T04:53:33.359Z,6.60
2023-02-22T04:54:34.991Z,6.65
2023-02-22T04:55:36.918Z,6.54
2023-02-22T04:56:38.602Z,6.56
2023-02-22T04:57:40.382Z,6.50
2023-02-22T04:58:42.243Z,6.54
2023-02-22T04:59:43.897Z,6.57
2023-02-22T05:00:46.269Z,6.56
2023-02-22T05:01:47.884Z,6.68
2023-02-22T05:02:50.014Z,6.78
2023-02-22T05:03:51.674Z,6.83
2023-02-22T05:04:53.424Z,6.94
2023-02-22T05:05:55.760Z,6.97
2023-02-22T05:06:57.423Z,7.08
2023-02-22T05:07:59.040Z,7.14
2023-02-22T05:09:00.791Z,7.22
2023-02-22T05:10:02.941Z,7.32
2023-02-22T05:11:05.410Z,7.38
2023-02-22T05:12:07.332Z,7.42
2023-02-22T05:13:09.331Z,7.48
2023-02-22T05:14:11.490Z,7.52
2023-02-22T05:15:17.357Z,7.56
2023-02-22T05:16:19.532Z,7.59
2023-02-22T05:17:21.139Z,7.50
2023-02-22T05:18:22.772Z,7.38
2023-02-22T05:19:24.528Z,7.50
2023-02-22T05:20:33.647Z,7.50
2023-02-22T05:21:35.293Z,7.53
2023-02-22T05:22:37.047Z,7.43
2023-02-22T05:23:38.664Z,7.46
2023-02-22T05:24:40.246Z,7.53
2023-02-22T05:25:41.957Z,7.55
2023-02-22T05:26:44.387Z,7.56
2023-02-22T05:27:50.422Z,7.62
2023-02-22T05:28:52.046Z,7.62
2023-02-22T05:29:53.647Z,7.69
2023-02-22T05:30:55.372Z,7.74
2023-02-22T05:31:58.385Z,7.81
2023-02-22T05:33:00.444Z,7.89
2023-02-22T05:34:02.062Z,7.94
2023-02-22T05:35:06.134Z,8.01
2023-02-22T05:36:08.324Z,8.01
2023-02-22T05:37:09.906Z,8.04
2023-02-22T05:38:15.053Z,8.04
2023-02-22T05:39:16.764Z,8.00
2023-02-22T05:40:19.588Z,7.90
2023-02-22T05:41:21.313Z,7.98
2023-02-22T05:42:23.520Z,7.97
2023-02-22T05:43:25.107Z,7.95
2023-02-22T05:44:26.709Z,8.00
2023-02-22T05:45:28.378Z,8.08
2023-02-22T05:46:30.176Z,8.05
2023-02-22T05:47:31.810Z,8.11
2023-02-22T05:48:33.568Z,8.17
2023-02-22T05:49:35.202Z,8.18
2023-02-22T05:50:36.796Z,8.17
2023-02-22T05:51:38.476Z,8.24
2023-02-22T05:52:40.194Z,8.28
2023-02-22T05:53:42.635Z,8.28
2023-02-22T05:54:44.271Z,8.18
2023-02-22T05:55:46.623Z,8.18
2023-02-22T05:56:48.299Z,8.21
2023-02-22T05:57:50.325Z,8.21
2023-02-22T05:58:52.044Z,8.32
2023-02-22T05:59:53.637Z,8.31
2023-02-22T06:00:55.288Z,8.34
2023-02-22T06:01:56.981Z,8.42
2023-02-22T06:03:02.866Z,8.40
2023-02-22T06:04:04.743Z,8.41
2023-02-22T06:05:06.747Z,8.38
2023-02-22T06:06:08.334Z,8.41
2023-02-22T06:07:09.943Z,8.35
2023-02-22T06:08:11.728Z,8.35
2023-02-22T06:09:13.340Z,8.41
2023-02-22T06:10:15.082Z,8.45
2023-02-22T06:11:17.026Z,8.42
2023-02-22T06:12:19.055Z,8.46
2023-02-22T06:13:20.710Z,8.51
2023-02-22T06:14:22.332Z,8.45
2023-02-22T06:15:24.397Z,8.42
2023-02-22T06:16:26.098Z,8.48
2023-02-22T06:17:27.788Z,8.44
2023-02-22T06:18:31.255Z,8.44
2023-02-22T06:19:32.891Z,8.52
2023-02-22T06:20:35.584Z,8.51
2023-02-22T06:21:37.422Z,8.56
2023-02-22T06:22:41.253Z,8.62
2023-02-22T06:23:42.868Z,8.72
2023-02-22T06:24:44.566Z,8.72
2023-02-22T06:25:46.247Z,8.76
2023-02-22T06:26:48.009Z,8.85
2023-02-22T06:27:49.667Z,8.86
2023-02-22T06:28:51.262Z,8.92
2023-02-22T06:29:52.860Z,8.96
2023-02-22T06:30:54.555Z,9.00
2023-02-22T06:31:56.307Z,9.05
2023-02-22T06:32:58.008Z,9.10
2023-02-22T06:33:59.605Z,9.13
2023-02-22T06:35:01.229Z,9.09
2023-02-22T06:36:02.943Z,9.13
2023-02-22T06:37:04.589Z,9.13
2023-02-22T06:38:06.420Z,9.20
2023-02-22T06:39:11.114Z,9.26
2023-02-22T06:40:12.943Z,9.23
2023-02-22T06:41:15.843Z,9.30
2023-02-22T06:42:17.737Z,9.36
2023-02-22T06:43:19.561Z,9.48
2023-02-22T06:44:21.171Z,9.48
2023-02-22T06:45:22.892Z,9.51
2023-02-22T06:46:24.720Z,9.52
2023-02-22T06:47:26.427Z,9.54
2023-02-22T06:48:28.031Z,9.55
2023-02-22T06:49:29.649Z,9.58
2023-02-22T06:50:31.625Z,9.58
2023-02-22T06:51:36.886Z,9.64
2023-02-22T06:52:42.812Z,9.65
2023-02-22T06:53:44.943Z,9.65
2023-02-22T06:54:46.626Z,9.71
2023-02-22T06:55:48.250Z,9.74
2023-02-22T06:56:49.962Z,9.74
2023-02-22T06:57:51.873Z,9.78
2023-02-22T06:58:53.458Z,9.81
2023-02-22T06:59:55.117Z,9.84
2023-02-22T07:00:56.730Z,9.87
2023-02-22T07:01:59.245Z,9.81
2023-02-22T07:03:01.806Z,9.87
2023-02-22T07:04:03.566Z,9.91
2023-02-22T07:05:05.407Z,9.91
2023-02-22T07:06:07.680Z,9.95
2023-02-22T07:07:09.336Z,9.98
2023-02-22T07:08:11.087Z,10.02
2023-02-22T07:09:13.260Z,10.08
2023-02-22T07:10:26.982Z,10.15
2023-02-22T07:11:28.631Z,10.15
2023-02-22T07:12:30.293Z,10.23
2023-02-22T07:13:31.941Z,10.18
2023-02-22T07:14:33.519Z,10.20
2023-02-22T07:15:35.332Z,10.28
2023-02-22T07:16:37.005Z,10.30
2023-02-22T07:17:41.254Z,10.35
2023-02-22T07:18:42.911Z,10.33
2023-02-22T07:19:44.567Z,10.36
2023-02-22T07:20:46.318Z,10.35
2023-02-22T07:21:48.210Z,10.36
2023-02-22T07:22:49.916Z,10.40
2023-02-22T07:23:55.122Z,10.45
2023-02-22T07:24:57.013Z,10.45
2023-02-22T07:26:00.630Z,10.48
2023-02-22T07:27:02.655Z,10.48
2023-02-22T07:28:04.436Z,10.53
2023-02-22T07:29:06.147Z,10.57
2023-02-22T07:30:09.107Z,10.60
2023-02-22T07:31:10.798Z,10.52
2023-02-22T07:32:12.468Z,10.53
2023-02-22T07:33:14.571Z,10.55
2023-02-22T07:34:16.307Z,10.60
2023-02-22T07:35:22.513Z,10.67
2023-02-22T07:36:24.467Z,10.63
2023-02-22T07:37:26.058Z,10.64
2023-02-22T07:38:28.782Z,10.66
2023-02-22T07:39:30.384Z,10.60
2023-02-22T07:40:32.124Z,10.61
2023-02-22T07:41:33.781Z,10.70
2023-02-22T07:42:59.605Z,10.66
2023-02-22T07:44:01.209Z,10.74
2023-02-22T07:45:02.803Z,10.73
2023-02-22T07:46:04.731Z,10.79
2023-02-22T07:47:06.479Z,10.89
2023-02-22T07:48:08.264Z,10.85
2023-02-22T07:49:09.895Z,10.84
2023-02-22T07:50:12.832Z,10.89
2023-02-22T07:51:17.813Z,10.80
2023-02-22T07:52:19.552Z,10.83
2023-02-22T07:53:28.693Z,10.90
2023-02-22T07:54:30.514Z,10.85
2023-02-22T07:55:32.634Z,10.83
2023-02-22T07:56:34.305Z,10.77
2023-02-22T07:57:35.908Z,10.85
2023-02-22T07:58:37.517Z,10.87
2023-02-22T07:59:39.401Z,10.90
2023-02-22T08:00:41.577Z,10.90
2023-02-22T08:01:43.266Z,10.89
2023-02-22T08:02:44.931Z,10.97
2023-02-22T08:03:47.758Z,10.96
2023-02-22T08:04:49.471Z,11.06
2023-02-22T08:05:52.856Z,11.01
2023-02-22T08:06:54.480Z,11.01
2023-02-22T08:07:56.395Z,10.99
2023-02-22T08:08:59.117Z,11.08
2023-02-22T08:10:00.732Z,11.11
2023-02-22T08:11:02.864Z,11.15
2023-02-22T08:12:04.643Z,11.10
2023-02-22T08:13:06.249Z,11.10
2023-02-22T08:14:07.861Z,11.07
2023-02-22T08:15:14.326Z,11.01
2023-02-22T08:16:15.936Z,11.06
2023-02-22T08:17:17.633Z,11.13
2023-02-22T08:18:19.653Z,11.11
2023-02-22T08:19:21.283Z,11.17
2023-02-22T08:20:23.097Z,11.11
2023-02-22T08:21:24.779Z,11.17
2023-02-22T08:22:29.053Z,11.21
2023-02-22T08:23:31.754Z,11.30
2023-02-22T08:24:33.415Z,11.42
2023-02-22T08:25:35.365Z,11.54
2023-02-22T08:26:36.984Z,11.59
2023-02-22T08:27:38.795Z,11.65
2023-02-22T08:28:40.485Z,11.68
2023-02-22T08:29:42.144Z,11.79
2023-02-22T08:30:43.972Z,11.85
2023-02-22T08:31:50.818Z,11.90
2023-02-22T08:32:52.559Z,12.00
2023-02-22T08:33:54.344Z,12.05
2023-02-22T08:34:55.951Z,12.09
2023-02-22T08:35:57.975Z,12.15
2023-02-22T08:36:59.590Z,12.06
2023-02-22T08:38:03.088Z,12.16
2023-02-22T08:39:04.691Z,12.12
2023-02-22T08:40:06.712Z,12.09
2023-02-22T08:41:08.364Z,11.99
2023-02-22T08:42:10.404Z,11.87
2023-02-22T08:43:13.544Z,11.90
2023-02-22T08:44:15.132Z,11.95
2023-02-22T08:45:16.912Z,11.87
2023-02-22T08:46:18.640Z,11.72
2023-02-22T08:47:20.363Z,11.78
2023-02-22T08:48:22.315Z,11.89
2023-02-22T08:49:24.061Z,11.92
2023-02-22T08:50:30.543Z,11.90
2023-02-22T08:51:35.199Z,11.86
2023-02-22T08:52:36.915Z,11.92
2023-02-22T08:53:38.510Z,11.95
2023-02-22T08:54:40.116Z,11.93
2023-02-22T08:55:42.310Z,11.96
2023-02-22T08:56:44.210Z,11.95
2023-02-22T08:57:45.832Z,11.99
2023-02-22T08:58:47.436Z,11.92
2023-02-22T08:59:49.033Z,11.97
2023-02-22T09:00:50.689Z,12.09
2023-02-22T09:01:52.414Z,12.13
2023-02-22T09:02:54.122Z,12.16
2023-02-22T09:03:56.331Z,12.16
2023-02-22T09:04:57.980Z,12.15
2023-02-22T09:05:59.716Z,12.20
2023-02-22T09:07:01.431Z,12.20
2023-02-22T09:08:03.111Z,12.19
2023-02-22T09:09:04.723Z,12.23
2023-02-22T09:10:06.782Z,12.29
2023-02-22T09:11:08.622Z,12.27
2023-02-22T09:12:11.124Z,12.16
2023-02-22T09:13:12.844Z,12.19
2023-02-22T09:14:15.361Z,12.12
2023-02-22T09:15:17.022Z,12.06
2023-02-22T09:16:18.813Z,12.02
2023-02-22T09:17:20.446Z,12.02
2023-02-22T09:18:22.115Z,11.99
2023-02-22T09:19:23.738Z,12.07
2023-02-22T09:20:25.607Z,12.02
2023-02-22T09:21:27.283Z,11.95
2023-02-22T09:22:29.002Z,11.86
2023-02-22T09:23:30.761Z,11.83
2023-02-22T09:24:32.430Z,11.86
2023-02-22T09:25:34.339Z,11.86
2023-02-22T09:26:39.494Z,11.81
2023-02-22T09:27:41.985Z,11.68
2023-02-22T09:28:43.605Z,11.78
2023-02-22T09:29:45.209Z,11.79
2023-02-22T09:30:47.453Z,11.78
2023-02-22T09:31:50.284Z,11.89
2023-02-22T09:32:53.748Z,11.96
2023-02-22T09:33:55.620Z,11.99
2023-02-22T09:34:57.297Z,11.97
2023-02-22T09:36:00.931Z,12.00
2023-02-22T09:37:02.629Z,12.12
2023-02-22T09:38:06.383Z,12.19
2023-02-22T09:39:09.316Z,12.16
2023-02-22T09:40:24.804Z,12.19
2023-02-22T09:41:34.581Z,12.22
2023-02-22T09:42:42.955Z,12.26
2023-02-22T09:43:49.418Z,12.27
2023-02-22T09:45:01.116Z,12.34
2023-02-22T09:46:28.168Z,12.29
2023-02-22T09:47:40.650Z,12.29
2023-02-22T09:48:59.139Z,12.33
2023-02-22T09:50:15.704Z,12.34
2023-02-22T09:51:18.279Z,12.34
2023-02-22T09:52:28.801Z,12.36
2023-02-22T09:53:41.894Z,12.43
2023-02-22T09:54:52.074Z,12.38
2023-02-22T09:55:53.826Z,12.37
2023-02-22T09:56:58.608Z,12.34
2023-02-22T09:58:02.868Z,12.33
2023-02-22T09:59:07.222Z,12.34
2023-02-22T10:00:19.985Z,12.44
2023-02-22T10:01:43.587Z,12.48
2023-02-22T10:02:50.249Z,12.51
2023-02-22T10:04:01.054Z,12.60
2023-02-22T10:05:08.411Z,12.61
2023-02-22T10:06:15.060Z,12.63
2023-02-22T10:07:30.771Z,12.48
2023-02-22T10:08:33.461Z,12.47
2023-02-22T10:09:37.692Z,12.48
2023-02-22T10:10:41.441Z,12.46
2023-02-22T10:12:09.194Z,12.41
2023-02-22T10:13:22.815Z,12.48
2023-02-22T10:14:53.592Z,12.53
2023-02-22T10:16:00.405Z,12.56
2023-02-22T10:17:40.238Z,12.51
2023-02-22T10:18:55.763Z,12.57
2023-02-22T10:20:07.684Z,12.61
2023-02-22T10:21:27.167Z,12.57
2023-02-22T10:22:28.935Z,12.65
2023-02-22T10:23:41.306Z,12.73
2023-02-22T10:25:01.504Z,12.76
2023-02-22T10:26:16.651Z,12.80
2023-02-22T10:27:25.858Z,12.85
2023-02-22T10:28:31.029Z,12.88
2023-02-22T10:29:40.802Z,12.89
2023-02-22T10:30:44.369Z,12.83
2023-02-22T10:31:47.120Z,12.94
2023-02-22T10:33:17.290Z,12.99
2023-02-22T10:34:26.816Z,13.01
2023-02-22T10:35:30.203Z,13.05
2023-02-22T10:36:32.019Z,13.11
2023-02-22T10:37:34.339Z,13.11
2023-02-22T10:38:36.007Z,13.07
2023-02-22T10:39:38.958Z,13.16
2023-02-22T10:40:40.766Z,13.22
2023-02-22T10:41:48.962Z,13.18
2023-02-22T10:42:50.669Z,13.22
2023-02-22T10:43:52.287Z,13.30
2023-02-22T10:44:53.878Z,13.23
2023-02-22T10:45:58.128Z,13.26
2023-02-22T10:47:03.998Z,13.23
2023-02-22T10:48:11.747Z,13.30
2023-02-22T10:49:17.127Z,13.25
2023-02-22T10:50:20.917Z,13.32
2023-02-22T10:51:22.727Z,13.19
2023-02-22T10:52:28.498Z,13.23
2023-02-22T10:53:30.386Z,13.26
2023-02-22T10:54:33.789Z,13.29
2023-02-22T10:55:35.690Z,13.29
2023-02-22T10:56:37.431Z,13.23
2023-02-22T10:57:39.118Z,13.34
2023-02-22T10:58:49.720Z,13.40
2023-02-22T10:59:52.104Z,13.45
2023-02-22T11:00:53.702Z,13.53
2023-02-22T11:01:55.330Z,13.49
2023-02-22T11:03:00.613Z,13.56
2023-02-22T11:04:28.386Z,13.40
2023-02-22T11:05:32.544Z,13.32
2023-02-22T11:06:34.440Z,13.35
2023-02-22T11:07:36.558Z,13.48
2023-02-22T11:08:38.300Z,13.55
2023-02-22T11:09:47.358Z,13.40
2023-02-22T11:10:53.245Z,13.26
2023-02-22T11:12:28.650Z,13.42
2023-02-22T11:13:37.370Z,13.42
2023-02-22T11:14:39.384Z,13.48
2023-02-22T11:15:41.035Z,13.43
2023-02-22T11:16:52.222Z,13.52
2023-02-22T11:17:55.340Z,13.56
2023-02-22T11:19:24.474Z,13.60
2023-02-22T11:20:28.160Z,13.59
2023-02-22T11:21:30.487Z,13.66
2023-02-22T11:22:41.212Z,13.70
2023-02-22T11:23:44.810Z,13.74
2023-02-22T11:24:50.732Z,13.79
2023-02-22T11:25:52.495Z,13.79
2023-02-22T11:26:56.533Z,13.74
2023-02-22T11:28:08.142Z,13.83
2023-02-22T11:29:26.256Z,13.89
2023-02-22T11:30:32.212Z,13.96
2023-02-22T11:31:34.063Z,13.76
2023-02-22T11:32:36.587Z,13.71
2023-02-22T11:33:38.220Z,13.79
2023-02-22T11:34:40.650Z,13.58
2023-02-22T11:35:54.526Z,13.52
2023-02-22T11:36:56.694Z,13.53
2023-02-22T11:38:21.174Z,13.71
2023-02-22T11:39:24.546Z,13.66
2023-02-22T11:40:27.550Z,13.70
2023-02-22T11:41:30.204Z,13.80
2023-02-22T11:42:31.847Z,13.80
2023-02-22T11:43:33.635Z,13.87
2023-02-22T11:44:35.376Z,13.91
2023-02-22T11:45:38.599Z,13.94
2023-02-22T11:46:42.011Z,13.91
2023-02-22T11:48:18.400Z,13.96
2023-02-22T11:49:20.215Z,13.89
2023-02-22T11:50:24.850Z,13.94
2023-02-22T11:51:50.656Z,13.91
2023-02-22T11:53:22.150Z,13.96
2023-02-22T11:54:29.042Z,14.00
2023-02-22T11:55:46.816Z,13.99
2023-02-22T11:56:49.276Z,14.01
2023-02-22T11:58:21.627Z,13.84
2023-02-22T11:59:40.905Z,13.91
2023-02-22T12:00:58.738Z,13.91
2023-02-22T12:02:27.340Z,13.81
2023-02-22T12:03:46.201Z,13.91
2023-02-22T12:04:59.593Z,13.93
2023-02-22T12:06:24.872Z,13.80
2023-02-22T12:07:52.396Z,13.71
2023-02-22T12:09:16.726Z,13.66
2023-02-22T12:10:20.338Z,13.73
2023-02-22T12:11:30.666Z,13.77
2023-02-22T12:12:41.346Z,13.76
2023-02-22T12:13:52.171Z,13.81
2023-02-22T12:15:13.956Z,13.80
2023-02-22T12:16:29.382Z,13.86
2023-02-22T12:18:00.130Z,13.81
2023-02-22T12:19:22.348Z,13.94
2023-02-22T12:20:30.999Z,13.93
2023-02-22T12:21:32.920Z,13.94
2023-02-22T12:22:38.258Z,13.94
2023-02-22T12:23:51.232Z,14.04
2023-02-22T12:25:09.456Z,13.90
2023-02-22T12:26:16.788Z,13.84
2023-02-22T12:27:22.536Z,13.84
2023-02-22T12:28:59.352Z,13.73
2023-02-22T12:30:05.912Z,13.81
2023-02-22T12:31:37.455Z,13.79
2023-02-22T12:32:41.889Z,13.73
2023-02-22T12:34:19.994Z,13.76
2023-02-22T12:35:22.893Z,13.76
2023-02-22T12:36:26.252Z,13.65
2023-02-22T12:37:37.706Z,13.63
2023-02-22T12:38:40.408Z,13.66
2023-02-22T12:39:59.704Z,13.66
2023-02-22T12:41:52.996Z,13.56
2023-02-22T12:43:16.797Z,13.50
2023-02-22T12:44:21.695Z,13.50
2023-02-22T12:45:42.102Z,13.49
2023-02-22T12:46:52.644Z,13.55
2023-02-22T12:48:21.680Z,13.56
2023-02-22T12:49:41.671Z,13.53
2023-02-22T12:50:43.300Z,13.52
2023-02-22T12:52:03.098Z,13.50
2023-02-22T12:53:31.604Z,13.48
2023-02-22T12:54:50.025Z,13.42
2023-02-22T12:55:54.602Z,13.48
2023-02-22T12:57:31.771Z,13.50
2023-02-22T12:59:19.949Z,13.59
2023-02-22T13:00:43.207Z,13.59
2023-02-22T13:01:46.905Z,13.63
2023-02-22T13:02:55.568Z,13.63
2023-02-22T13:03:57.189Z,13.62
2023-02-22T13:05:00.265Z,13.66
2023-02-22T13:06:36.725Z,13.66
2023-02-22T13:08:15.826Z,13.69
2023-02-22T13:09:36.066Z,13.66
2023-02-22T13:10:56.288Z,13.66
2023-02-22T13:12:12.859Z,13.65
2023-02-22T13:13:19.911Z,13.60
2023-02-22T13:14:56.505Z,13.62
2023-02-22T13:16:16.812Z,13.69
2023-02-22T13:17:30.128Z,13.65
2023-02-22T13:18:45.692Z,13.65
2023-02-22T13:20:06.257Z,13.66
2023-02-22T13:21:19.941Z,13.65
2023-02-22T13:22:37.331Z,13.67
2023-02-22T13:23:44.739Z,13.66
2023-02-22T13:24:50.294Z,13.65
2023-02-22T13:25:57.592Z,13.65
2023-02-22T13:27:06.562Z,13.62
2023-02-22T13:28:43.365Z,13.49
2023-02-22T13:29:47.518Z,13.55
2023-02-22T13:30:57.001Z,13.40
2023-02-22T13:32:20.438Z,13.36
2023-02-22T13:33:51.436Z,13.36
2023-02-22T13:35:29.151Z,13.45
2023-02-22T13:36:58.699Z,13.40
2023-02-22T13:38:24.054Z,13.42
2023-02-22T13:39:45.845Z,13.36
2023-02-22T13:40:53.461Z,13.30
2023-02-22T13:42:14.270Z,13.42
2023-02-22T13:43:45.099Z,13.43
2023-02-22T13:45:12.478Z,13.46
2023-02-22T13:46:30.238Z,13.52
2023-02-22T13:47:55.965Z,13.52
2023-02-22T13:49:00.545Z,13.42
2023-02-22T13:50:23.751Z,13.42
2023-02-22T13:51:46.053Z,13.43
2023-02-22T13:52:47.901Z,13.45
2023-02-22T13:53:58.331Z,13.42
2023-02-22T13:55:10.924Z,13.40
2023-02-22T13:56:12.582Z,13.46
2023-02-22T13:57:18.752Z,13.50
2023-02-22T13:58:21.111Z,13.52
2023-02-22T13:59:34.418Z,13.59
2023-02-22T14:00:46.737Z,13.58
2023-02-22T14:01:48.890Z,13.59
2023-02-22T14:03:15.437Z,13.56
2023-02-22T14:04:29.137Z,13.56
2023-02-22T14:05:46.488Z,13.43
2023-02-22T14:06:50.228Z,13.50
2023-02-22T14:07:52.741Z,13.48
2023-02-22T14:08:54.375Z,13.45
2023-02-22T14:09:57.054Z,13.43
2023-02-22T14:11:12.631Z,13.39
2023-02-22T14:12:47.568Z,13.28
2023-02-22T14:14:01.034Z,13.32
2023-02-22T14:15:28.069Z,13.34
2023-02-22T14:16:31.378Z,13.35
2023-02-22T14:17:33.021Z,13.35
2023-02-22T14:18:45.284Z,13.39
2023-02-22T14:20:20.563Z,13.18
2023-02-22T14:21:22.378Z,13.11
2023-02-22T14:22:30.192Z,13.19
2023-02-22T14:23:44.503Z,13.14
2023-02-22T14:24:47.023Z,13.15
2023-02-22T14:25:48.783Z,13.15
2023-02-22T14:27:01.972Z,13.14
2023-02-22T14:28:08.572Z,13.20
2023-02-22T14:29:10.149Z,13.16
2023-02-22T14:30:26.178Z,13.08
2023-02-22T14:31:37.420Z,13.09